createdAt,value
2024-02-05T00:02:33.093Z,100.00
2024-02-05T00:07:36.415Z,100.00
2024-02-05T00:12:39.487Z,100.00
2024-02-05T00:17:42.464Z,100.00
2024-02-05T00:22:46.507Z,100.00
2024-02-05T00:27:49.424Z,100.00
2024-02-05T00:32:53.745Z,100.00
2024-02-05T00:37:58.529Z,100.00
2024-02-05T00:43:01.526Z,100.00
2024-02-05T00:48:04.961Z,100.00
2024-02-05T00:53:07.912Z,100.00
2024-02-05T00:58:10.858Z,100.00
2024-02-05T01:03:15.934Z,100.00
2024-02-05T01:08:18.904Z,100.00
2024-02-05T01:13:21.808Z,100.00
2024-02-05T01:18:25.061Z,100.00
2024-02-05T01:23:28.015Z,100.00
2024-02-05T01:28:30.968Z,100.00
2024-02-05T01:33:33.823Z,100.00
2024-02-05T01:38:36.842Z,100.00
2024-02-05T01:43:39.661Z,100.00
2024-02-05T01:48:44.396Z,100.00
2024-02-05T01:53:51.489Z,100.00
2024-02-05T01:58:55.069Z,100.00
2024-02-05T02:03:59.097Z,100.00
2024-02-05T02:09:03.239Z,100.00
2024-02-05T02:14:06.188Z,100.00
2024-02-05T02:19:23.702Z,100.00
2024-02-05T02:24:27.548Z,100.00
2024-02-05T02:29:30.556Z,100.00
2024-02-05T02:34:36.041Z,100.00
2024-02-05T02:39:49.168Z,100.00
2024-02-05T02:44:55.444Z,100.00
2024-02-05T02:49:58.291Z,100.00
2024-02-05T02:55:01.183Z,100.00
2024-02-05T03:00:06.862Z,100.00
2024-02-05T03:05:09.826Z,100.00
2024-02-05T03:10:12.690Z,100.00
2024-02-05T03:15:15.620Z,100.00
2024-02-05T03:20:35.785Z,100.00
2024-02-05T03:25:40.469Z,100.00
2024-02-05T03:30:44.619Z,100.00
2024-02-05T03:35:47.545Z,100.00
2024-02-05T03:40:50.383Z,100.00
2024-02-05T03:45:53.236Z,100.00
2024-02-05T03:50:56.361Z,100.00
2024-02-05T03:55:59.958Z,100.00
2024-02-05T04:01:02.822Z,100.00
2024-02-05T04:06:05.885Z,100.00
2024-02-05T04:11:09.231Z,100.00
2024-02-05T04:16:15.698Z,100.00
2024-02-05T04:21:18.632Z,100.00
2024-02-05T04:26:21.486Z,100.00
2024-02-05T04:31:24.355Z,100.00
2024-02-05T04:36:28.043Z,100.00
2024-02-05T04:41:30.857Z,100.00
2024-02-05T04:46:34.505Z,100.00
2024-02-05T04:51:37.718Z,100.00
2024-02-05T04:56:40.602Z,100.00
2024-02-05T05:01:43.534Z,100.00
2024-02-05T05:06:47.083Z,100.00
2024-02-05T05:11:50.051Z,100.00
2024-02-05T05:16:52.890Z,100.00
2024-02-05T05:21:56.247Z,100.00
2024-02-05T05:26:59.986Z,100.00
2024-02-05T05:32:02.843Z,100.00
2024-02-05T05:37:05.740Z,100.00
2024-02-05T05:42:09.426Z,100.00
2024-02-05T05:47:12.294Z,100.00
2024-02-05T05:52:15.262Z,100.00
2024-02-05T05:57:18.297Z,100.00
2024-02-05T06:02:21.166Z,100.00
2024-02-05T06:07:24.009Z,100.00
2024-02-05T06:12:26.833Z,100.00
2024-02-05T06:17:29.664Z,100.00
2024-02-05T06:22:33.481Z,100.00
2024-02-05T06:27:36.296Z,100.00
2024-02-05T06:32:39.377Z,100.00
2024-02-05T06:37:42.682Z,100.00
2024-02-05T06:42:47.648Z,100.00
2024-02-05T06:47:53.656Z,100.00
2024-02-05T06:52:57.415Z,100.00
2024-02-05T06:58:02.215Z,100.00
2024-02-05T07:03:07.188Z,100.00
2024-02-05T07:08:17.969Z,100.00
2024-02-05T07:13:23.027Z,99.65
2024-02-05T07:18:29.869Z,100.00
2024-02-05T07:23:33.349Z,99.47
2024-02-05T07:28:38.864Z,97.39
2024-02-05T07:33:47.096Z,94.81
2024-02-05T07:38:53.877Z,92.28
2024-02-05T07:43:57.724Z,91.49
2024-02-05T07:49:01.606Z,91.19
2024-02-05T07:54:08.706Z,89.41
2024-02-05T07:59:13.317Z,89.11
2024-02-05T08:04:20.046Z,87.35
2024-02-05T08:09:23.072Z,86.22
2024-02-05T08:14:26.385Z,84.91
2024-02-05T08:19:33.831Z,83.88
2024-02-05T08:24:38.521Z,83.73
2024-02-05T08:29:42.178Z,83.76
2024-02-05T08:34:45.564Z,82.68
2024-02-05T08:39:48.768Z,82.49
2024-02-05T08:49:55.897Z,81.55
2024-02-05T08:54:59.089Z,79.17
2024-02-05T09:00:05.659Z,80.05
2024-02-05T09:05:08.882Z,79.49
2024-02-05T09:10:12.348Z,79.05
2024-02-05T09:15:15.963Z,80.50
2024-02-05T09:20:19.031Z,80.44
2024-02-05T09:25:21.974Z,79.65
2024-02-05T09:30:25.442Z,79.16
2024-02-05T09:35:28.641Z,78.94
2024-02-05T09:40:32.198Z,78.73
2024-02-05T09:45:38.379Z,78.35
2024-02-05T09:50:42.380Z,75.76
2024-02-05T09:55:47.384Z,75.40
2024-02-05T10:00:52.360Z,75.33
2024-02-05T10:05:59.252Z,75.41
2024-02-05T10:11:04.876Z,75.28
2024-02-05T10:16:08.777Z,72.76
2024-02-05T10:21:11.897Z,71.60
2024-02-05T10:26:15.398Z,70.15
2024-02-05T10:31:19.531Z,70.25
2024-02-05T10:36:22.716Z,70.36
2024-02-05T10:41:25.735Z,68.77
2024-02-05T10:46:34.035Z,67.65
2024-02-05T10:51:40.745Z,67.62
2024-02-05T10:56:47.829Z,67.10
2024-02-05T11:01:59.871Z,67.53
2024-02-05T11:07:10.036Z,66.89
2024-02-05T11:12:14.823Z,65.73
2024-02-05T11:17:23.199Z,64.54
2024-02-05T11:22:27.010Z,64.65
2024-02-05T11:27:31.077Z,64.34
2024-02-05T11:32:35.224Z,61.82
2024-02-05T11:37:39.429Z,61.81
2024-02-05T11:42:44.468Z,61.83
2024-02-05T11:47:57.369Z,60.77
2024-02-05T11:53:04.731Z,61.56
2024-02-05T11:58:10.020Z,62.01
2024-02-05T12:03:14.213Z,62.01
2024-02-05T12:08:19.973Z,62.37
2024-02-05T12:13:23.712Z,59.72
2024-02-05T12:18:26.881Z,59.35
2024-02-05T12:23:30.109Z,58.98
2024-02-05T12:28:33.424Z,60.52
2024-02-05T12:33:36.774Z,58.15
2024-02-05T12:38:41.055Z,57.88
2024-02-05T12:43:46.270Z,57.83
2024-02-05T12:48:50.589Z,56.89
2024-02-05T12:53:53.792Z,57.76
2024-02-05T12:58:56.794Z,57.26
2024-02-05T13:04:00.344Z,58.01
2024-02-05T13:09:04.556Z,58.23
2024-02-05T13:14:09.508Z,58.54
2024-02-05T13:19:13.022Z,59.46
2024-02-05T13:24:18.583Z,59.91
2024-02-05T13:29:27.127Z,59.39
2024-02-05T13:34:31.597Z,60.95
2024-02-05T13:39:35.457Z,58.74
2024-02-05T13:44:38.548Z,60.16
2024-02-05T13:49:42.075Z,59.68
2024-02-05T13:54:45.085Z,59.80
2024-02-05T13:59:49.327Z,60.88
2024-02-05T14:04:52.535Z,61.55
2024-02-05T14:09:56.065Z,61.83
2024-02-05T14:14:59.358Z,62.54
2024-02-05T14:20:03.524Z,62.89
2024-02-05T14:25:09.421Z,63.75
2024-02-05T14:30:12.684Z,63.70
2024-02-05T14:35:17.367Z,63.37
2024-02-05T14:40:20.550Z,64.52
2024-02-05T14:45:23.491Z,64.41
2024-02-05T14:50:26.839Z,64.88
2024-02-05T14:55:33.427Z,64.97
2024-02-05T15:00:37.214Z,64.15
2024-02-05T15:05:40.723Z,64.75
2024-02-05T15:10:44.268Z,65.22
2024-02-05T15:15:47.504Z,66.22
2024-02-05T15:20:50.577Z,65.63
2024-02-05T15:25:53.855Z,65.84
2024-02-05T15:31:00.581Z,66.23
2024-02-05T15:36:05.149Z,67.06
2024-02-05T15:41:08.369Z,68.09
2024-02-05T15:46:11.536Z,68.43
2024-02-05T15:51:15.363Z,68.93
2024-02-05T15:56:20.247Z,70.16
2024-02-05T16:01:31.501Z,73.11
2024-02-05T16:06:39.240Z,75.06
2024-02-05T16:11:42.177Z,75.45
2024-02-05T16:16:45.928Z,76.03
2024-02-05T16:21:49.736Z,75.49
2024-02-05T16:26:53.613Z,74.47
2024-02-05T16:31:58.595Z,73.27
2024-02-05T16:37:01.658Z,72.41
2024-02-05T16:42:05.074Z,71.30
2024-02-05T16:47:08.173Z,68.61
2024-02-05T16:52:11.083Z,68.42
2024-02-05T16:57:14.215Z,69.57
2024-02-05T17:02:17.526Z,70.51
2024-02-05T17:07:20.673Z,71.37
2024-02-05T17:12:24.853Z,71.94
2024-02-05T17:17:28.591Z,72.40
2024-02-05T17:22:31.649Z,72.99
2024-02-05T17:27:34.541Z,73.94
2024-02-05T17:32:37.610Z,74.22
2024-02-05T17:37:41.124Z,74.42
2024-02-05T17:42:44.018Z,74.40
2024-02-05T17:47:46.951Z,75.51
2024-02-05T17:52:52.552Z,76.39
2024-02-05T17:57:55.380Z,77.07
2024-02-05T18:03:00.378Z,78.12
2024-02-05T18:08:03.976Z,78.76
2024-02-05T18:13:08.195Z,79.47
2024-02-05T18:18:11.224Z,79.59
2024-02-05T18:23:14.390Z,80.48
2024-02-05T18:28:17.584Z,82.07
2024-02-05T18:33:20.664Z,84.61
2024-02-05T18:38:24.029Z,85.70
2024-02-05T18:43:27.205Z,88.01
2024-02-05T18:48:30.994Z,87.51
2024-02-05T18:53:34.185Z,88.77
2024-02-05T18:58:38.986Z,88.78
2024-02-05T19:03:42.915Z,89.27
2024-02-05T19:08:45.968Z,88.98
2024-02-05T19:13:48.971Z,88.62
2024-02-05T19:18:52.123Z,88.63
2024-02-05T19:23:55.169Z,88.32
2024-02-05T19:28:59.711Z,88.85
2024-02-05T19:34:03.045Z,89.02
2024-02-05T19:39:08.766Z,89.47
2024-02-05T19:44:11.603Z,89.52
2024-02-05T19:49:14.556Z,90.39
2024-02-05T19:54:17.478Z,90.56
2024-02-05T19:59:21.400Z,90.90
2024-02-05T20:04:24.792Z,91.27
2024-02-05T20:09:29.357Z,92.34
2024-02-05T20:14:33.507Z,93.01
2024-02-05T20:19:36.812Z,93.11
2024-02-05T20:24:39.897Z,93.95
2024-02-05T20:29:42.808Z,94.40
2024-02-05T20:34:45.672Z,94.94
2024-02-05T20:39:48.941Z,95.20
2024-02-05T20:44:52.062Z,95.52
2024-02-05T20:49:55.235Z,96.01
2024-02-05T20:55:00.272Z,96.54
2024-02-05T21:00:03.918Z,96.97
2024-02-05T21:05:07.698Z,96.78
2024-02-05T21:10:11.436Z,96.98
2024-02-05T21:15:15.120Z,96.81
2024-02-05T21:20:20.088Z,97.17
2024-02-05T21:25:23.326Z,97.25
2024-02-05T21:30:26.524Z,97.35
2024-02-05T21:35:29.555Z,97.52
2024-02-05T21:40:35.952Z,97.82
2024-02-05T21:45:39.018Z,97.91
2024-02-05T21:50:41.809Z,98.32
2024-02-05T21:55:45.217Z,98.58
2024-02-05T22:00:48.385Z,98.74
2024-02-05T22:05:51.393Z,98.50
2024-02-05T22:10:54.240Z,98.76
2024-02-05T22:15:57.118Z,98.85
2024-02-05T22:21:00.545Z,99.24
2024-02-05T22:26:03.516Z,98.67
2024-02-05T22:31:06.508Z,98.89
2024-02-05T22:36:10.579Z,98.64
2024-02-05T22:41:13.452Z,98.54
2024-02-05T22:46:16.298Z,98.21
2024-02-05T22:51:19.178Z,97.85
2024-02-05T22:56:22.105Z,98.05
2024-02-05T23:01:25.032Z,97.98
2024-02-05T23:06:28.937Z,97.97
2024-02-05T23:11:31.830Z,98.34
2024-02-05T23:16:35.116Z,98.17
2024-02-05T23:21:38.217Z,98.20
2024-02-05T23:26:42.589Z,98.15
2024-02-05T23:31:47.051Z,97.95
2024-02-05T23:36:49.956Z,98.15
2024-02-05T23:41:52.882Z,97.65
2024-02-05T23:46:55.714Z,97.62
2024-02-05T23:51:58.609Z,97.57
2024-02-05T23:57:01.493Z,97.33
